createdAt,value
2023-05-17T00:05:38.152Z,2.17
2023-05-17T00:11:42.671Z,2.60
2023-05-17T00:23:50.580Z,2.80
2023-05-17T00:29:53.027Z,2.38
2023-05-17T00:35:56.538Z,2.63
2023-05-17T00:42:02.713Z,2.83
2023-05-17T00:48:06.762Z,2.30
2023-05-17T00:54:10.573Z,2.78
2023-05-17T01:00:15.162Z,2.67
2023-05-17T01:13:06.608Z,2.45
2023-05-17T01:19:38.007Z,2.80
2023-05-17T01:25:59.072Z,2.78
2023-05-17T01:32:06.596Z,3.42
2023-05-17T01:38:10.880Z,2.88
2023-05-17T01:44:27.415Z,3.10
2023-05-17T01:50:33.635Z,3.30
2023-05-17T01:56:41.581Z,3.25
2023-05-17T02:02:46.680Z,3.38
2023-05-17T02:08:49.809Z,3.78
2023-05-17T02:14:53.050Z,3.20
2023-05-17T02:20:56.994Z,3.28
2023-05-17T02:27:01.835Z,3.80
2023-05-17T02:33:05.297Z,3.72
2023-05-17T02:39:08.997Z,5.07
2023-05-17T02:45:13.016Z,4.28
2023-05-17T02:51:15.992Z,3.92
2023-05-17T02:57:19.327Z,3.95
2023-05-17T03:03:22.315Z,3.83
2023-05-17T03:09:25.353Z,3.60
2023-05-17T03:15:31.209Z,3.63
2023-05-17T03:21:34.251Z,4.28
2023-05-17T03:27:38.050Z,3.30
2023-05-17T03:33:42.299Z,4.47
2023-05-17T03:39:46.071Z,4.22
2023-05-17T03:45:49.890Z,4.63
2023-05-17T03:51:53.892Z,4.13
2023-05-17T03:57:57.422Z,3.45
2023-05-17T04:04:02.114Z,4.82
2023-05-17T04:10:05.998Z,3.72
2023-05-17T04:16:09.834Z,4.10
2023-05-17T04:22:15.765Z,3.57
2023-05-17T04:28:18.662Z,3.70
2023-05-17T04:34:24.309Z,3.60
2023-05-17T04:40:34.623Z,3.63
2023-05-17T04:46:37.945Z,3.92
2023-05-17T04:52:50.331Z,4.75
2023-05-17T04:58:54.198Z,4.22
2023-05-17T05:04:57.979Z,4.13
2023-05-17T05:11:07.918Z,4.10
2023-05-17T05:17:14.418Z,4.07
2023-05-17T05:23:19.158Z,3.83
2023-05-17T05:29:23.202Z,3.38
2023-05-17T05:35:34.224Z,3.03
2023-05-17T05:41:50.821Z,3.15
2023-05-17T05:47:56.362Z,2.40
2023-05-17T05:54:04.203Z,2.85
2023-05-17T06:00:09.230Z,3.13
2023-05-17T06:06:19.907Z,2.05
2023-05-17T06:12:30.683Z,2.33
2023-05-17T06:18:35.765Z,2.33
2023-05-17T06:24:39.130Z,2.15
2023-05-17T06:30:43.166Z,2.08
2023-05-17T06:36:47.163Z,1.52
2023-05-17T06:42:51.616Z,1.45
2023-05-17T06:48:55.106Z,1.90
2023-05-17T06:54:59.175Z,2.67
2023-05-17T07:01:03.263Z,1.60
2023-05-17T07:07:06.918Z,1.70
2023-05-17T07:13:13.025Z,1.90
2023-05-17T07:19:17.618Z,1.67
2023-05-17T07:25:22.695Z,1.63
2023-05-17T07:31:27.323Z,2.60
2023-05-17T07:37:30.979Z,1.38
2023-05-17T07:43:33.652Z,1.40
2023-05-17T07:49:36.861Z,1.27
2023-05-17T07:55:47.331Z,1.73
2023-05-17T08:01:53.376Z,1.50
2023-05-17T08:08:03.000Z,1.33
2023-05-17T08:14:07.126Z,1.52
2023-05-17T08:20:10.981Z,1.30
2023-05-17T08:26:14.983Z,1.73
2023-05-17T08:32:17.617Z,1.48
2023-05-17T08:38:21.095Z,1.40
2023-05-17T08:44:25.147Z,1.10
2023-05-17T08:50:34.296Z,1.48
2023-05-17T08:56:40.604Z,1.67
2023-05-17T09:02:43.414Z,1.13
2023-05-17T09:08:48.475Z,1.42
2023-05-17T09:14:52.478Z,1.38
2023-05-17T09:20:55.055Z,1.33
2023-05-17T09:27:04.499Z,2.20
2023-05-17T09:33:10.369Z,2.30
2023-05-17T09:39:16.374Z,2.00
2023-05-17T09:45:26.938Z,1.50
2023-05-17T09:51:34.783Z,1.50
2023-05-17T09:57:42.640Z,1.70
2023-05-17T10:03:46.581Z,1.42
2023-05-17T10:09:50.613Z,1.52
2023-05-17T10:15:56.247Z,1.90
2023-05-17T10:22:18.258Z,1.77
2023-05-17T10:28:24.443Z,2.00
2023-05-17T10:34:28.490Z,1.70
2023-05-17T10:40:32.486Z,1.75
2023-05-17T10:46:43.359Z,1.52
2023-05-17T10:52:50.415Z,1.80
2023-05-17T10:59:15.711Z,1.80
2023-05-17T11:05:28.574Z,1.48
2023-05-17T11:11:32.109Z,2.00
2023-05-17T11:17:44.427Z,1.90
2023-05-17T11:23:48.488Z,2.10
2023-05-17T11:29:52.253Z,1.80
2023-05-17T11:35:56.426Z,1.88
2023-05-17T11:42:05.708Z,1.60
2023-05-17T11:48:09.594Z,1.77
2023-05-17T11:54:16.143Z,1.40
2023-05-17T12:00:30.461Z,2.10
2023-05-17T12:12:39.691Z,2.03
2023-05-17T12:18:45.880Z,1.70
2023-05-17T12:24:49.833Z,2.20
2023-05-17T12:31:04.834Z,1.95
2023-05-17T12:37:11.819Z,1.80
2023-05-17T12:43:15.771Z,1.73
2023-05-17T12:49:19.729Z,2.10
2023-05-17T12:55:23.710Z,1.83
2023-05-17T13:01:26.885Z,1.73
2023-05-17T13:07:30.701Z,1.67
2023-05-17T13:13:38.312Z,1.40
2023-05-17T13:19:42.455Z,1.73
2023-05-17T13:31:49.430Z,1.80
2023-05-17T13:37:52.425Z,1.50
2023-05-17T13:43:56.133Z,1.33
2023-05-17T13:50:02.613Z,2.20
2023-05-17T13:56:07.023Z,1.52
2023-05-17T14:02:11.707Z,1.42
2023-05-17T14:08:14.838Z,1.70
2023-05-17T14:14:18.832Z,2.78
2023-05-17T14:20:22.328Z,1.35
2023-05-17T14:26:24.635Z,1.60
2023-05-17T14:32:27.880Z,1.98
2023-05-17T14:38:31.465Z,1.52
2023-05-17T14:44:36.224Z,1.60
2023-05-17T14:50:41.440Z,1.67
2023-05-17T14:56:46.912Z,1.70
2023-05-17T15:02:51.082Z,1.40
2023-05-17T15:08:55.220Z,1.85
2023-05-17T15:14:58.840Z,1.52
2023-05-17T15:21:03.503Z,1.40
2023-05-17T15:27:06.933Z,1.25
2023-05-17T15:33:10.783Z,1.53
2023-05-17T15:39:17.737Z,1.38
2023-05-17T15:45:24.310Z,1.58
2023-05-17T15:51:35.852Z,1.40
2023-05-17T15:57:39.602Z,1.30
2023-05-17T16:03:43.561Z,1.45
2023-05-17T16:09:46.997Z,1.70
2023-05-17T16:15:51.009Z,1.80
2023-05-17T16:21:55.521Z,1.33
2023-05-17T16:27:59.133Z,1.70
2023-05-17T16:34:02.838Z,1.60
2023-05-17T16:40:06.931Z,1.85
2023-05-17T16:46:10.833Z,1.95
2023-05-17T16:52:14.176Z,1.60
2023-05-17T16:58:16.730Z,1.57
2023-05-17T17:04:20.126Z,1.35
2023-05-17T17:10:23.833Z,2.07
2023-05-17T17:16:32.818Z,1.70
2023-05-17T17:22:39.129Z,1.60
2023-05-17T17:28:42.345Z,1.40
2023-05-17T17:34:45.411Z,1.67
2023-05-17T17:40:49.652Z,2.13
2023-05-17T17:46:53.214Z,2.28
2023-05-17T17:52:58.736Z,1.50
2023-05-17T17:59:01.504Z,1.98
2023-05-17T18:05:05.117Z,2.58
2023-05-17T18:11:09.134Z,2.15
2023-05-17T18:17:12.735Z,1.65
2023-05-17T18:23:16.852Z,1.87
2023-05-17T18:29:20.378Z,2.05
2023-05-17T18:35:24.529Z,1.73
2023-05-17T18:41:28.630Z,1.80
2023-05-17T18:47:31.447Z,1.75
2023-05-17T18:53:37.061Z,1.27
2023-05-17T18:59:40.749Z,1.67
2023-05-17T19:05:43.980Z,1.70
2023-05-17T19:11:46.827Z,1.80
2023-05-17T19:17:49.586Z,1.65
2023-05-17T19:23:52.887Z,1.75
2023-05-17T19:29:55.655Z,2.22
2023-05-17T19:35:59.226Z,2.13
2023-05-17T19:42:01.501Z,1.90
2023-05-17T19:48:07.777Z,1.70
2023-05-17T19:54:11.376Z,1.90
2023-05-17T20:00:19.505Z,2.33
2023-05-17T20:06:23.141Z,1.90
2023-05-17T20:12:31.694Z,2.20
2023-05-17T20:18:33.802Z,1.85
2023-05-17T20:24:37.094Z,2.28
2023-05-17T20:30:46.451Z,2.10
2023-05-17T20:36:49.104Z,2.15
2023-05-17T20:42:54.174Z,2.08
2023-05-17T20:48:58.608Z,2.20
2023-05-17T20:55:02.223Z,2.03
2023-05-17T21:01:10.551Z,2.08
2023-05-17T21:07:14.151Z,2.15
2023-05-17T21:13:16.668Z,2.30
2023-05-17T21:19:20.481Z,2.40
2023-05-17T21:25:23.913Z,2.13
2023-05-17T21:31:34.433Z,2.50
2023-05-17T21:37:40.798Z,2.22
2023-05-17T21:43:44.415Z,2.60
2023-05-17T21:49:54.658Z,2.87
2023-05-17T21:56:02.636Z,2.60
2023-05-17T22:02:09.629Z,2.92
2023-05-17T22:08:12.400Z,3.10
2023-05-17T22:14:15.118Z,3.03
2023-05-17T22:20:20.362Z,2.85
2023-05-17T22:26:23.198Z,2.92
2023-05-17T22:32:28.481Z,2.88
2023-05-17T22:38:31.304Z,2.90
2023-05-17T22:44:35.827Z,3.10
2023-05-17T22:50:43.748Z,3.10
2023-05-17T22:56:46.989Z,2.75
2023-05-17T23:02:50.519Z,2.80
2023-05-17T23:08:53.841Z,3.00
2023-05-17T23:14:58.164Z,3.20
2023-05-17T23:21:00.784Z,2.60
2023-05-17T23:27:03.795Z,2.63
2023-05-17T23:33:06.531Z,3.00
2023-05-17T23:39:09.470Z,3.00
2023-05-17T23:45:12.231Z,2.83
2023-05-17T23:51:14.635Z,3.13
2023-05-17T23:57:18.017Z,2.67
